Time;durP1;ratioP1;P1;durP2;ratioP2;P2;SDS_P1;SDS_P2;PMS_P1;PMS_P2;Temp;Humidity;BMP_temperature;BMP_pressure;BME280_temperature;BME280_humidity;BME280_pressure;Samples;Min_cycle;Max_cycle;Signal;HPM_P1;HPM_P2
2022/06/10 00:02:15;;;;;;;12.45;5.90;;;11.50;99.90;;;;;;5064395;28;20922;-66
2022/06/10 00:04:41;;;;;;;13.30;5.75;;;11.40;99.90;;;;;;5058901;28;20049;-66
2022/06/10 00:07:07;;;;;;;9.93;6.70;;;11.40;99.90;;;;;;5067604;28;20051;-66
2022/06/10 00:09:33;;;;;;;9.32;4.90;;;11.40;99.90;;;;;;5048849;28;20123;-66
2022/06/10 00:11:58;;;;;;;22.00;5.95;;;11.30;99.90;;;;;;5057730;28;20045;-66
2022/06/10 00:14:24;;;;;;;17.42;6.43;;;11.30;99.90;;;;;;5055806;28;20466;-66
2022/06/10 00:16:50;;;;;;;10.60;6.07;;;11.30;99.90;;;;;;5069231;28;20516;-66
2022/06/10 00:19:16;;;;;;;13.55;6.88;;;11.30;99.90;;;;;;5051132;28;20057;-66
2022/06/10 00:21:42;;;;;;;9.60;5.88;;;11.30;99.90;;;;;;5049900;28;20101;-66
2022/06/10 00:24:08;;;;;;;12.63;7.10;;;11.20;99.90;;;;;;5051004;28;20083;-66
2022/06/10 00:26:34;;;;;;;15.18;7.15;;;11.20;99.90;;;;;;5067623;28;20120;-66
2022/06/10 00:29:01;;;;;;;18.55;7.05;;;11.20;99.90;;;;;;5057783;28;20454;-66
2022/06/10 00:31:27;;;;;;;12.48;6.43;;;11.20;99.90;;;;;;5066915;28;20040;-66
2022/06/10 00:33:53;;;;;;;12.35;6.85;;;11.20;99.90;;;;;;5069709;28;20120;-66
2022/06/10 00:36:19;;;;;;;17.42;7.40;;;11.10;99.90;;;;;;5055562;28;20037;-66
2022/06/10 00:38:46;;;;;;;12.35;6.85;;;11.10;99.90;;;;;;5061493;28;20117;-66
2022/06/10 00:41:13;;;;;;;19.40;8.23;;;11.00;99.90;;;;;;5053560;28;20040;-66
2022/06/10 00:43:38;;;;;;;19.77;7.47;;;11.00;99.90;;;;;;5064658;28;20043;-66
2022/06/10 00:46:11;;;;;;;15.13;8.35;;;11.00;99.90;;;;;;5057731;28;20045;-66
2022/06/10 00:48:56;;;;;;;11.52;6.97;;;10.90;99.90;;;;;;5065635;28;20045;-65
2022/06/10 00:51:21;;;;;;;18.27;7.07;;;11.00;99.90;;;;;;5061878;28;20049;-66
2022/06/10 00:53:53;;;;;;;20.92;7.28;;;10.90;99.90;;;;;;5050256;28;20044;-66
2022/06/10 00:56:22;;;;;;;8.88;7.07;;;10.90;99.90;;;;;;5056500;28;20083;-66
2022/06/10 00:59:17;;;;;;;10.50;7.07;;;10.90;99.90;;;;;;5051126;28;20117;-66
2022/06/10 01:01:44;;;;;;;14.27;8.40;;;10.80;99.90;;;;;;5045486;28;20044;-66
2022/06/10 01:04:10;;;;;;;15.07;7.90;;;10.80;99.90;;;;;;5069551;28;20037;-66
2022/06/10 01:06:36;;;;;;;14.52;7.97;;;10.80;99.90;;;;;;5057003;28;20048;-66
2022/06/10 01:09:03;;;;;;;14.75;8.40;;;10.80;99.90;;;;;;5052566;28;20052;-66
2022/06/10 01:11:57;;;;;;;21.30;8.25;;;10.80;99.90;;;;;;5048878;28;20048;-66
2022/06/10 01:14:31;;;;;;;18.13;8.32;;;10.80;99.90;;;;;;5064853;28;20055;-66
2022/06/10 01:17:20;;;;;;;21.02;9.00;;;10.80;99.90;;;;;;5055416;28;20049;-66
2022/06/10 01:20:17;;;;;;;16.70;8.93;;;10.80;99.90;;;;;;5048422;28;20040;-66
2022/06/10 01:22:57;;;;;;;19.92;9.00;;;10.80;99.90;;;;;;5061964;28;20045;-66
2022/06/10 01:25:57;;;;;;;14.07;8.98;;;10.70;99.90;;;;;;5048789;28;20067;-66
2022/06/10 01:29:00;;;;;;;19.13;9.30;;;10.70;99.90;;;;;;5049554;28;20040;-66
2022/06/10 01:31:47;;;;;;;18.70;9.40;;;10.70;99.90;;;;;;5052115;28;20045;-66
2022/06/10 01:34:28;;;;;;;15.65;10.73;;;10.70;99.90;;;;;;5048869;28;20041;-66
2022/06/10 01:37:00;;;;;;;29.05;12.27;;;10.70;99.90;;;;;;5057753;28;20438;-66
2022/06/10 01:39:44;;;;;;;37.72;11.30;;;10.70;99.90;;;;;;5050402;28;20045;-66
2022/06/10 01:42:18;;;;;;;28.25;12.45;;;10.80;99.90;;;;;;5066242;28;20059;-67
2022/06/10 01:45:05;;;;;;;22.17;12.43;;;10.90;99.90;;;;;;5058211;28;20044;-67
2022/06/10 01:47:33;;;;;;;19.23;10.70;;;10.90;99.90;;;;;;5047625;28;20071;-67
2022/06/10 01:50:07;;;;;;;18.95;11.13;;;10.90;99.90;;;;;;5051582;28;20079;-67
2022/06/10 01:52:42;;;;;;;30.90;14.30;;;10.90;99.90;;;;;;5051679;28;20053;-67
2022/06/10 01:55:21;;;;;;;19.48;13.43;;;10.90;99.90;;;;;;5048967;28;20090;-67
2022/06/10 01:57:58;;;;;;;22.75;13.25;;;10.90;99.90;;;;;;5061898;28;20041;-66
2022/06/10 02:00:27;;;;;;;19.65;11.50;;;10.90;99.90;;;;;;5054371;28;20163;-67
2022/06/10 02:03:23;;;;;;;20.55;11.77;;;10.90;99.90;;;;;;5048366;28;20045;-66
2022/06/10 02:05:53;;;;;;;15.32;11.57;;;11.00;99.90;;;;;;5055213;28;20088;-66
2022/06/10 02:08:27;;;;;;;17.80;11.35;;;10.90;99.90;;;;;;5052560;28;20056;-65
2022/06/10 02:10:59;;;;;;;18.33;11.85;;;10.90;99.90;;;;;;5061928;28;20686;-65
2022/06/10 02:13:30;;;;;;;18.80;11.30;;;10.80;99.90;;;;;;5051995;28;20406;-66
2022/06/10 02:16:00;;;;;;;19.77;12.35;;;10.90;99.90;;;;;;5048762;28;20116;-65
2022/06/10 02:19:00;;;;;;;28.33;11.80;;;10.80;99.90;;;;;;5067629;28;20114;-65
2022/06/10 02:21:35;;;;;;;23.70;11.95;;;10.90;99.90;;;;;;5033799;28;20103;-65
2022/06/10 02:24:26;;;;;;;18.63;11.63;;;10.80;99.90;;;;;;5054079;28;20105;-65
2022/06/10 02:26:57;;;;;;;18.58;11.23;;;10.90;99.90;;;;;;5046903;28;20104;-66
2022/06/10 02:29:29;;;;;;;23.17;11.30;;;10.80;99.90;;;;;;5055109;28;20455;-66
2022/06/10 02:31:58;;;;;;;16.48;11.18;;;10.80;99.90;;;;;;5047079;28;20048;-66
2022/06/10 02:34:26;;;;;;;10.90;9.15;;;10.70;99.90;;;;;;5052827;28;20048;-66
2022/06/10 02:36:59;;;;;;;31.00;11.37;;;10.70;99.90;;;;;;5059780;28;20037;-66
2022/06/10 02:39:42;;;;;;;24.63;11.25;;;10.70;99.90;;;;;;5073213;28;20334;-66
2022/06/10 02:42:08;;;;;;;30.10;11.77;;;10.70;99.90;;;;;;5053974;28;20059;-66
2022/06/10 02:44:41;;;;;;;18.98;10.98;;;10.70;99.90;;;;;;5057755;28;20045;-67
2022/06/10 02:47:21;;;;;;;17.50;10.93;;;10.70;99.90;;;;;;5060188;28;20409;-67
2022/06/10 02:49:47;;;;;;;15.82;10.15;;;10.60;99.90;;;;;;5062627;28;20041;-67
2022/06/10 02:52:14;;;;;;;23.73;11.95;;;10.60;99.90;;;;;;5054175;28;20045;-67
2022/06/10 02:54:42;;;;;;;19.15;11.20;;;10.60;99.90;;;;;;5069176;28;20055;-67
2022/06/10 02:57:14;;;;;;;20.58;12.52;;;10.60;99.90;;;;;;5053679;28;20059;-67
2022/06/10 03:02:48;;;;;;;18.05;11.60;;;10.50;99.90;;;;;;5073812;28;20513;-67
2022/06/10 03:05:35;;;;;;;17.63;11.40;;;10.50;99.90;;;;;;5063070;28;20047;-67
2022/06/10 03:08:25;;;;;;;14.55;11.77;;;10.50;99.90;;;;;;5071575;28;20519;-67
2022/06/10 03:11:09;;;;;;;16.15;10.10;;;10.50;99.90;;;;;;5064959;28;20080;-65
2022/06/10 03:13:41;;;;;;;20.08;11.10;;;10.50;99.90;;;;;;5073337;28;20048;-66
2022/06/10 03:16:16;;;;;;;17.25;11.02;;;10.50;99.90;;;;;;5057680;28;20128;-67
2022/06/10 03:19:01;;;;;;;24.98;11.32;;;10.40;99.90;;;;;;5063520;28;20037;-67
2022/06/10 03:21:50;;;;;;;23.38;11.13;;;10.40;99.90;;;;;;5069419;28;20383;-68
2022/06/10 03:24:20;;;;;;;20.52;12.63;;;10.40;99.90;;;;;;5059900;28;20040;-68
2022/06/10 03:27:18;;;;;;;16.42;10.18;;;10.40;99.90;;;;;;5053335;28;20072;-69
2022/06/10 03:29:53;;;;;;;13.77;9.88;;;10.40;99.90;;;;;;5056417;28;20109;-69
2022/06/10 03:32:25;;;;;;;12.55;10.27;;;10.30;99.90;;;;;;5068766;28;20118;-69
2022/06/10 03:34:58;;;;;;;18.92;11.38;;;10.40;99.90;;;;;;5055595;28;20049;-69
2022/06/10 03:37:25;;;;;;;14.18;9.68;;;10.30;99.90;;;;;;5061498;28;20045;-68
2022/06/10 03:39:55;;;;;;;16.45;10.00;;;10.40;99.90;;;;;;5053484;28;20456;-68
2022/06/10 03:42:23;;;;;;;14.82;10.23;;;10.30;99.90;;;;;;5064304;28;20076;-69
2022/06/10 03:44:54;;;;;;;18.75;10.70;;;10.30;99.90;;;;;;5055759;28;20041;-68
2022/06/10 03:47:29;;;;;;;18.83;10.88;;;10.30;99.90;;;;;;5059912;28;20084;-68
2022/06/10 03:50:06;;;;;;;15.07;10.50;;;10.40;99.90;;;;;;5053078;28;20040;-69
2022/06/10 03:52:35;;;;;;;13.95;9.82;;;10.40;99.90;;;;;;5051844;28;20197;-69
2022/06/10 03:55:01;;;;;;;16.63;10.52;;;10.30;99.90;;;;;;5049622;28;20505;-69
2022/06/10 03:57:27;;;;;;;16.95;10.63;;;10.40;99.90;;;;;;5053529;28;20127;-69
2022/06/10 03:59:53;;;;;;;18.75;10.15;;;10.40;99.90;;;;;;5057348;28;20128;-69
2022/06/10 04:02:19;;;;;;;20.35;11.43;;;10.40;99.90;;;;;;5049675;28;20076;-69
2022/06/10 04:04:45;;;;;;;17.35;10.93;;;10.40;99.90;;;;;;5060000;28;20532;-69
2022/06/10 04:07:17;;;;;;;19.83;11.27;;;10.40;99.90;;;;;;5052940;28;20031;-69
2022/06/10 04:09:43;;;;;;;19.80;11.77;;;10.50;99.90;;;;;;5049882;28;20049;-69
2022/06/10 04:12:10;;;;;;;12.90;10.35;;;10.50;99.90;;;;;;5049739;28;20037;-69
2022/06/10 04:14:36;;;;;;;17.80;10.70;;;10.60;99.90;;;;;;5057976;28;20048;-69
2022/06/10 04:17:02;;;;;;;12.68;8.75;;;10.60;99.90;;;;;;5065621;28;20524;-69
2022/06/10 04:19:27;;;;;;;15.48;8.90;;;10.70;99.90;;;;;;5058477;28;20116;-68
2022/06/10 04:21:53;;;;;;;14.38;10.60;;;10.70;99.90;;;;;;5057201;28;20933;-68
2022/06/10 04:24:19;;;;;;;25.88;10.70;;;10.80;99.90;;;;;;5061222;28;20053;-68
2022/06/10 04:26:45;;;;;;;21.25;10.60;;;10.80;99.90;;;;;;5061069;28;20090;-68
2022/06/10 04:29:13;;;;;;;21.45;11.13;;;10.80;99.90;;;;;;5052148;28;20040;-68
2022/06/10 04:31:39;;;;;;;17.17;9.18;;;10.90;99.90;;;;;;5058704;28;20045;-68
2022/06/10 04:34:06;;;;;;;20.70;11.63;;;10.90;99.90;;;;;;5054149;28;20055;-68
2022/06/10 04:36:32;;;;;;;34.55;12.52;;;11.00;99.90;;;;;;5063750;28;20032;-68
2022/06/10 04:38:58;;;;;;;26.35;12.18;;;11.10;99.90;;;;;;5049238;28;20044;-68
2022/06/10 04:41:23;;;;;;;25.92;12.85;;;11.20;99.90;;;;;;5062071;28;20045;-68
2022/06/10 04:43:49;;;;;;;22.63;12.05;;;11.30;99.90;;;;;;5056250;28;20079;-68
2022/06/10 04:46:26;;;;;;;24.35;11.43;;;11.40;99.90;;;;;;5067807;28;20425;-68
2022/06/10 04:48:52;;;;;;;32.17;14.55;;;11.40;99.90;;;;;;5059767;28;20041;-68
2022/06/10 04:51:18;;;;;;;25.17;13.88;;;11.60;99.90;;;;;;5063341;28;20131;-68
2022/06/10 04:53:43;;;;;;;27.35;12.52;;;11.60;99.90;;;;;;5068620;28;20101;-68
2022/06/10 04:56:09;;;;;;;32.83;13.55;;;11.70;99.90;;;;;;5054781;28;20081;-69
2022/06/10 04:58:35;;;;;;;34.90;14.02;;;11.80;99.90;;;;;;5062355;28;20041;-69
2022/06/10 05:01:01;;;;;;;31.35;14.60;;;11.90;99.90;;;;;;5055208;28;20048;-68
2022/06/10 05:03:26;;;;;;;33.65;14.70;;;12.00;99.90;;;;;;5057059;28;20102;-68
2022/06/10 05:05:52;;;;;;;28.42;13.40;;;12.00;99.90;;;;;;5062374;28;20032;-68
2022/06/10 05:08:18;;;;;;;31.45;13.93;;;12.10;99.90;;;;;;5064879;28;20139;-69
2022/06/10 05:10:46;;;;;;;26.23;15.48;;;12.20;99.90;;;;;;5062683;28;20045;-68
2022/06/10 05:13:11;;;;;;;24.75;13.18;;;12.30;99.90;;;;;;5064648;28;20089;-68
2022/06/10 05:15:38;;;;;;;31.15;15.20;;;12.30;99.90;;;;;;5059623;28;20048;-69
2022/06/10 05:18:04;;;;;;;26.33;16.33;;;12.40;99.90;;;;;;5048557;28;20052;-68
2022/06/10 05:20:33;;;;;;;30.73;15.18;;;12.50;99.90;;;;;;5049239;28;20037;-69
2022/06/10 05:23:01;;;;;;;31.25;14.60;;;12.60;99.90;;;;;;5048398;28;20563;-69
2022/06/10 05:25:27;;;;;;;40.30;17.77;;;12.60;99.90;;;;;;5048760;28;20059;-69
2022/06/10 05:27:53;;;;;;;25.35;15.25;;;12.70;99.90;;;;;;5055543;28;20143;-70
2022/06/10 05:30:21;;;;;;;28.40;15.75;;;12.80;99.90;;;;;;5051010;28;20555;-69
2022/06/10 05:32:47;;;;;;;;;;;12.90;99.90;;;;;;5054775;28;20461;-69
2022/06/10 05:35:13;;;;;;;25.73;13.43;;;13.00;99.90;;;;;;5055713;28;19924;-69
2022/06/10 05:37:39;;;;;;;34.13;15.85;;;13.10;99.90;;;;;;5053568;28;20056;-69
2022/06/10 05:40:05;;;;;;;24.58;14.13;;;13.20;99.90;;;;;;5062718;28;20043;-69
2022/06/10 05:42:31;;;;;;;30.65;13.80;;;13.30;99.90;;;;;;5048334;28;20080;-69
2022/06/10 05:44:57;;;;;;;31.00;14.40;;;13.40;99.90;;;;;;5049879;28;20080;-69
2022/06/10 05:47:29;;;;;;;27.63;13.65;;;13.60;99.90;;;;;;5048736;28;20049;-69
2022/06/10 05:49:59;;;;;;;26.38;13.23;;;13.80;99.90;;;;;;5050765;28;20037;-69
2022/06/10 05:52:27;;;;;;;31.27;14.85;;;14.10;99.90;;;;;;5052534;28;20059;-69
2022/06/10 05:54:55;;;;;;;20.67;13.10;;;14.30;99.90;;;;;;5050316;28;20079;-69
2022/06/10 05:57:22;;;;;;;21.45;13.48;;;14.40;99.90;;;;;;5056066;28;20049;-69
2022/06/10 05:59:49;;;;;;;28.17;13.57;;;14.50;99.90;;;;;;5058948;28;20090;-69
2022/06/10 06:02:15;;;;;;;26.67;14.05;;;14.70;99.90;;;;;;5054477;28;20049;-69
2022/06/10 06:04:41;;;;;;;29.27;13.30;;;14.70;99.90;;;;;;5055241;28;20041;-69
2022/06/10 06:07:08;;;;;;;33.30;14.80;;;14.70;99.90;;;;;;5052238;28;20490;-69
2022/06/10 06:09:34;;;;;;;21.30;13.13;;;14.80;99.90;;;;;;5057610;28;20036;-69
2022/06/10 06:12:00;;;;;;;30.30;13.82;;;14.80;99.90;;;;;;5048881;28;20087;-69
2022/06/10 06:14:27;;;;;;;25.83;14.10;;;14.80;99.90;;;;;;5047741;28;20037;-69
2022/06/10 06:16:56;;;;;;;32.33;13.75;;;14.90;99.90;;;;;;5047496;28;20831;-69
2022/06/10 06:19:23;;;;;;;23.60;13.32;;;14.80;99.90;;;;;;5049193;28;20033;-69
2022/06/10 06:21:49;;;;;;;25.15;13.25;;;14.90;99.90;;;;;;5048188;28;20044;-69
2022/06/10 06:24:15;;;;;;;24.25;13.48;;;14.90;99.90;;;;;;5058551;28;21467;-69
2022/06/10 06:26:41;;;;;;;23.73;12.93;;;14.90;99.90;;;;;;5053305;28;20040;-69
2022/06/10 06:29:06;;;;;;;27.10;14.30;;;14.90;99.90;;;;;;5048695;28;20130;-69
2022/06/10 06:31:34;;;;;;;31.95;13.55;;;15.00;99.90;;;;;;5052618;28;20045;-69
2022/06/10 06:33:59;;;;;;;20.50;12.88;;;15.00;99.90;;;;;;5051677;28;20045;-69
2022/06/10 06:36:27;;;;;;;20.85;11.48;;;15.00;99.90;;;;;;5049208;28;20047;-70
2022/06/10 06:38:53;;;;;;;28.98;12.10;;;15.10;99.90;;;;;;5055209;28;20572;-70
2022/06/10 06:41:20;;;;;;;31.98;12.70;;;15.00;99.90;;;;;;5051280;28;20413;-70
2022/06/10 06:43:46;;;;;;;23.58;11.90;;;15.00;99.90;;;;;;5054743;28;20048;-69
2022/06/10 06:46:13;;;;;;;29.98;12.63;;;15.00;99.90;;;;;;5053822;28;20044;-71
2022/06/10 06:48:39;;;;;;;23.03;13.07;;;15.10;99.90;;;;;;5064496;28;20044;-68
2022/06/10 06:51:06;;;;;;;35.50;13.10;;;15.10;99.90;;;;;;5063836;28;20048;-68
2022/06/10 06:53:32;;;;;;;34.25;13.25;;;15.20;99.90;;;;;;5049073;28;20048;-68
2022/06/10 06:55:58;;;;;;;22.75;12.00;;;15.20;99.90;;;;;;5047399;28;20513;-68
2022/06/10 06:58:24;;;;;;;18.25;12.35;;;15.30;99.90;;;;;;5028650;28;20053;-68
2022/06/10 07:00:50;;;;;;;27.33;12.73;;;15.30;99.90;;;;;;5051000;28;20040;-68
2022/06/10 07:03:15;;;;;;;18.05;11.80;;;15.40;99.90;;;;;;5055917;28;20076;-68
2022/06/10 07:05:42;;;;;;;25.30;12.93;;;15.50;99.90;;;;;;5046557;28;20037;-68
2022/06/10 07:08:09;;;;;;;39.70;11.25;;;15.60;99.90;;;;;;5055966;28;20041;-69
2022/06/10 07:10:35;;;;;;;25.27;12.77;;;15.60;99.90;;;;;;5046641;28;20044;-69
2022/06/10 07:13:01;;;;;;;29.92;12.65;;;15.70;99.90;;;;;;5052288;28;20052;-69
2022/06/10 07:15:26;;;;;;;20.58;12.20;;;15.80;99.90;;;;;;5064616;28;20413;-69
2022/06/10 07:17:53;;;;;;;36.03;13.00;;;15.80;99.90;;;;;;5030493;28;20049;-68
2022/06/10 07:20:28;;;;;;;33.33;13.82;;;15.90;99.90;;;;;;5052685;28;20067;-68
2022/06/10 07:22:54;;;;;;;24.55;14.38;;;16.00;99.90;;;;;;5052463;28;20048;-68
2022/06/10 07:25:20;;;;;;;26.80;13.43;;;15.90;99.90;;;;;;5054293;28;20064;-68
2022/06/10 07:27:46;;;;;;;36.03;13.55;;;15.80;99.90;;;;;;5053531;28;20049;-68
2022/06/10 07:30:15;;;;;;;30.80;14.00;;;15.90;99.90;;;;;;5056447;28;20040;-68
2022/06/10 07:32:45;;;;;;;29.70;15.38;;;15.90;99.90;;;;;;5050386;28;20049;-67
2022/06/10 07:35:12;;;;;;;36.03;17.45;;;15.80;99.90;;;;;;5050306;28;20037;-67
2022/06/10 07:37:38;;;;;;;28.33;15.30;;;15.90;99.90;;;;;;5064636;28;20037;-68
2022/06/10 07:40:05;;;;;;;30.02;17.42;;;16.00;99.90;;;;;;5062419;28;20577;-67
2022/06/10 07:42:34;;;;;;;30.90;16.90;;;16.00;99.90;;;;;;5056090;28;20131;-68
2022/06/10 07:45:02;;;;;;;27.63;16.45;;;16.00;99.90;;;;;;5054345;28;20519;-68
2022/06/10 07:47:28;;;;;;;26.08;14.85;;;16.10;99.90;;;;;;5056258;28;20045;-68
2022/06/10 07:49:54;;;;;;;24.52;15.25;;;16.10;99.90;;;;;;5052003;28;20048;-68
2022/06/10 07:52:20;;;;;;;23.35;14.73;;;16.20;99.90;;;;;;5054278;28;20049;-68
2022/06/10 07:54:45;;;;;;;25.38;15.30;;;16.30;99.90;;;;;;5051714;28;20099;-68
2022/06/10 07:57:12;;;;;;;23.05;14.63;;;16.30;99.90;;;;;;5050702;28;20041;-68
2022/06/10 07:59:42;;;;;;;23.02;14.48;;;16.40;99.90;;;;;;5051223;28;20076;-69
2022/06/10 08:02:09;;;;;;;33.47;14.00;;;16.40;99.90;;;;;;5052623;28;20068;-68
2022/06/10 08:04:34;;;;;;;22.90;15.05;;;16.40;99.90;;;;;;5049850;28;20037;-68
2022/06/10 08:07:00;;;;;;;32.03;15.02;;;16.50;99.90;;;;;;5050378;28;20082;-68
2022/06/10 08:09:26;;;;;;;22.55;14.27;;;16.50;99.90;;;;;;5049904;28;20120;-69
2022/06/10 08:11:52;;;;;;;27.33;14.40;;;16.60;99.90;;;;;;5049257;28;20098;-67
2022/06/10 08:14:18;;;;;;;27.10;14.80;;;16.50;99.90;;;;;;5058119;28;20048;-69
2022/06/10 08:16:44;;;;;;;26.40;15.38;;;16.60;99.90;;;;;;5051100;28;20063;-67
2022/06/10 08:19:11;;;;;;;27.08;14.65;;;16.70;99.90;;;;;;5061145;28;20563;-68
2022/06/10 08:24:21;;;;;;;25.63;15.25;;;16.70;99.90;;;;;;5054531;28;20052;-68
2022/06/10 08:26:48;;;;;;;26.52;16.52;;;16.80;99.90;;;;;;5051224;28;20445;-71
2022/06/10 08:29:14;;;;;;;24.53;13.73;;;16.80;99.90;;;;;;5062174;28;20521;-68
2022/06/10 08:31:39;;;;;;;39.17;17.58;;;16.90;99.90;;;;;;5048109;28;20263;-69
2022/06/10 08:34:05;;;;;;;33.72;16.80;;;16.90;99.90;;;;;;5054741;28;20044;-69
2022/06/10 08:36:32;;;;;;;26.65;15.82;;;16.90;99.90;;;;;;5053180;28;20090;-69
2022/06/10 08:38:58;;;;;;;22.42;13.25;;;16.90;99.90;;;;;;5059948;28;20058;-68
2022/06/10 08:41:27;;;;;;;28.95;17.88;;;17.00;99.90;;;;;;5051277;28;20116;-67
2022/06/10 08:44:12;;;;;;;24.52;15.85;;;17.10;99.90;;;;;;5055602;28;20760;-67
2022/06/10 08:47:06;;;;;;;29.95;16.48;;;17.10;99.90;;;;;;5054367;28;20135;-67
2022/06/10 08:49:38;;;;;;;22.55;15.18;;;17.20;99.90;;;;;;5048928;28;20057;-67
2022/06/10 08:52:19;;;;;;;20.75;15.80;;;17.20;99.90;;;;;;5040175;28;20056;-67
2022/06/10 08:55:14;;;;;;;26.75;15.77;;;17.30;99.90;;;;;;5059129;28;20057;-66
2022/06/10 08:57:43;;;;;;;27.15;15.40;;;17.40;99.90;;;;;;5066682;28;20049;-67
2022/06/10 09:00:22;;;;;;;28.80;15.07;;;17.40;99.90;;;;;;5063802;28;20068;-67
2022/06/10 09:03:12;;;;;;;26.77;15.50;;;17.60;99.90;;;;;;5047085;28;20048;-67
2022/06/10 09:05:45;;;;;;;25.80;14.23;;;17.60;99.90;;;;;;5054878;28;20505;-67
2022/06/10 09:08:24;;;;;;;24.63;12.88;;;17.70;99.90;;;;;;5053908;28;20518;-67
2022/06/10 09:10:57;;;;;;;26.52;13.02;;;17.80;99.90;;;;;;5053786;28;20498;-67
2022/06/10 09:13:41;;;;;;;22.85;11.82;;;18.10;99.90;;;;;;5062842;28;20048;-67
2022/06/10 09:16:19;;;;;;;29.40;11.80;;;18.10;99.90;;;;;;5030694;28;20486;-68
2022/06/10 09:19:19;;;;;;;26.70;12.88;;;18.20;99.90;;;;;;5048532;28;20579;-67
2022/06/10 09:22:15;;;;;;;19.20;10.68;;;18.30;99.90;;;;;;5047656;28;20045;-67
2022/06/10 09:25:18;;;;;;;17.70;10.45;;;18.30;99.90;;;;;;5048195;28;20036;-68
2022/06/10 09:27:48;;;;;;;23.00;11.50;;;18.40;99.90;;;;;;5059159;28;20081;-67
2022/06/10 09:30:17;;;;;;;17.73;9.63;;;18.40;99.90;;;;;;5065836;28;20502;-67
2022/06/10 09:32:58;;;;;;;15.82;10.38;;;18.40;99.90;;;;;;5049396;28;20033;-67
2022/06/10 09:36:01;;;;;;;22.55;10.57;;;18.40;99.90;;;;;;5031358;28;20045;-67
2022/06/10 09:38:51;;;;;;;19.60;11.80;;;18.40;99.90;;;;;;5067655;28;20067;-68
2022/06/10 09:41:26;;;;;;;22.27;12.63;;;18.40;99.90;;;;;;5065224;28;20539;-67
2022/06/10 09:44:17;;;;;;;32.00;13.57;;;18.30;99.90;;;;;;5057287;28;20043;-67
2022/06/10 09:47:11;;;;;;;21.90;12.02;;;18.40;99.90;;;;;;5051310;28;20096;-67
2022/06/10 09:49:53;;;;;;;18.75;11.50;;;18.30;99.90;;;;;;5037731;28;20053;-68
2022/06/10 09:52:46;;;;;;;19.63;12.20;;;18.30;99.90;;;;;;5049622;28;20115;-68
2022/06/10 09:55:34;;;;;;;21.42;11.48;;;18.30;99.90;;;;;;5054025;28;20037;-68
2022/06/10 09:58:05;;;;;;;18.88;11.90;;;18.30;99.90;;;;;;5053568;28;20049;-68
2022/06/10 10:00:40;;;;;;;24.60;11.85;;;18.20;99.90;;;;;;5051340;28;20068;-68
2022/06/10 10:03:31;;;;;;;28.13;13.65;;;18.20;99.90;;;;;;5055573;28;20036;-68
2022/06/10 10:06:24;;;;;;;25.58;11.30;;;18.10;99.90;;;;;;5048135;28;20811;-69
2022/06/10 10:09:05;;;;;;;16.05;12.50;;;18.10;99.90;;;;;;5046296;28;20059;-67
2022/06/10 10:11:45;;;;;;;29.77;13.18;;;18.10;99.90;;;;;;5060256;28;20047;-68
2022/06/10 10:14:21;;;;;;;25.15;11.50;;;18.10;99.90;;;;;;5051129;28;20052;-68
2022/06/10 10:17:18;;;;;;;22.77;11.50;;;18.10;99.90;;;;;;5047418;28;20037;-68
2022/06/10 10:19:51;;;;;;;;;;;18.20;99.90;;;;;;5047540;28;20041;-68
2022/06/10 10:22:44;;;;;;;18.63;10.55;;;18.30;99.90;;;;;;5048935;28;19925;-69
2022/06/10 10:25:18;;;;;;;26.45;13.00;;;18.50;99.90;;;;;;5047204;28;20041;-68
2022/06/10 10:27:46;;;;;;;25.23;11.13;;;18.60;99.90;;;;;;5048279;28;20676;-68
2022/06/10 10:30:42;;;;;;;23.08;11.65;;;18.90;99.90;;;;;;5048830;28;20657;-68
2022/06/10 10:33:14;;;;;;;19.65;9.95;;;19.20;99.90;;;;;;5025456;28;20071;-68
2022/06/10 10:35:50;;;;;;;17.42;9.88;;;19.30;99.90;;;;;;5046611;28;20052;-68
2022/06/10 10:38:41;;;;;;;17.65;9.77;;;19.40;99.90;;;;;;5046251;28;20569;-68
2022/06/10 10:41:26;;;;;;;16.80;9.95;;;19.60;99.90;;;;;;5065719;28;20044;-69
2022/06/10 10:43:54;;;;;;;18.92;10.00;;;19.60;99.90;;;;;;5047500;28;20046;-69
2022/06/10 10:46:23;;;;;;;23.05;10.35;;;19.60;99.90;;;;;;5045939;28;20460;-69
2022/06/10 10:48:49;;;;;;;17.45;10.70;;;19.60;99.90;;;;;;5046994;28;20059;-69
2022/06/10 10:51:20;;;;;;;21.15;9.45;;;19.60;99.90;;;;;;5047698;28;20212;-68
2022/06/10 10:53:51;;;;;;;24.60;8.90;;;19.60;99.90;;;;;;5051049;28;20513;-69
2022/06/10 10:56:18;;;;;;;15.27;10.02;;;19.60;99.90;;;;;;5053835;28;20080;-69
2022/06/10 10:58:50;;;;;;;15.52;9.77;;;19.60;99.90;;;;;;5066315;28;20037;-69
2022/06/10 11:01:45;;;;;;;15.68;8.77;;;19.70;99.90;;;;;;5062783;28;20041;-68
2022/06/10 11:04:30;;;;;;;19.90;8.40;;;19.80;99.90;;;;;;5053816;28;20036;-68
2022/06/10 11:07:18;;;;;;;20.77;10.38;;;20.10;99.90;;;;;;5053032;28;20044;-69
2022/06/10 11:09:48;;;;;;;15.60;8.30;;;20.30;99.90;;;;;;5052621;28;20422;-69
2022/06/10 11:12:18;;;;;;;16.52;9.40;;;20.40;99.90;;;;;;5051336;28;20041;-68
2022/06/10 11:14:48;;;;;;;11.73;8.20;;;20.60;99.90;;;;;;5050818;28;20075;-69
2022/06/10 11:17:18;;;;;;;24.25;9.10;;;20.60;99.90;;;;;;5053583;28;20115;-68
2022/06/10 11:19:46;;;;;;;20.33;8.48;;;20.60;99.90;;;;;;5066153;28;20037;-68
2022/06/10 11:22:27;;;;;;;17.30;8.57;;;20.70;99.90;;;;;;5039425;28;20094;-69
2022/06/10 11:25:16;;;;;;;15.70;8.23;;;20.70;99.90;;;;;;5057315;28;20094;-69
2022/06/10 11:27:59;;;;;;;12.13;8.20;;;20.70;99.90;;;;;;5057924;28;20084;-69
2022/06/10 11:30:35;;;;;;;15.23;8.75;;;20.70;99.90;;;;;;5062145;28;20387;-69
2022/06/10 11:33:04;;;;;;;13.18;7.85;;;20.90;99.90;;;;;;5052353;28;20067;-69
2022/06/10 11:35:37;;;;;;;29.35;9.75;;;20.90;99.90;;;;;;5053784;28;20459;-69
2022/06/10 11:38:16;;;;;;;17.38;7.90;;;21.00;99.90;;;;;;5053225;28;20051;-69
2022/06/10 11:40:52;;;;;;;16.05;8.30;;;21.00;99.90;;;;;;5050887;28;20088;-69
2022/06/10 11:43:27;;;;;;;37.67;11.65;;;21.10;99.90;;;;;;5055850;28;20037;-68
2022/06/10 11:46:05;;;;;;;16.92;9.10;;;21.20;99.90;;;;;;5054256;28;20041;-68
2022/06/10 11:48:49;;;;;;;19.17;10.25;;;21.20;99.90;;;;;;5055504;28;20044;-68
2022/06/10 11:51:40;;;;;;;22.13;10.13;;;21.30;99.90;;;;;;5049546;28;20044;-68
2022/06/10 11:54:19;;;;;;;20.92;9.48;;;21.30;99.90;;;;;;5051572;28;20148;-69
2022/06/10 11:59:58;;;;;;;16.48;8.98;;;21.80;99.90;;;;;;5057456;28;20083;-69
2022/06/10 12:02:41;;;;;;;22.27;10.27;;;22.10;99.90;;;;;;5065616;28;20044;-69
2022/06/10 12:05:30;;;;;;;14.68;8.02;;;22.30;99.90;;;;;;5058325;28;20051;-70
2022/06/10 12:08:02;;;;;;;15.05;8.98;;;22.40;99.90;;;;;;5057975;28;20052;-70
2022/06/10 12:10:37;;;;;;;16.85;9.88;;;22.20;99.90;;;;;;5057031;28;20112;-70
2022/06/10 12:13:03;;;;;;;19.35;8.70;;;22.10;99.90;;;;;;5056816;28;20080;-69
2022/06/10 12:15:34;;;;;;;22.73;9.32;;;22.10;99.90;;;;;;5054371;28;20052;-68
2022/06/10 12:18:04;;;;;;;20.30;9.27;;;22.10;99.90;;;;;;5050436;28;20045;-69
2022/06/10 12:21:01;;;;;;;10.88;7.60;;;21.90;99.90;;;;;;5063645;28;20060;-69
2022/06/10 12:23:38;;;;;;;17.17;8.40;;;22.00;99.90;;;;;;5052099;28;20045;-69
2022/06/10 12:26:22;;;;;;;19.45;8.35;;;21.90;99.90;;;;;;5064262;28;20479;-69
2022/06/10 12:29:02;;;;;;;19.17;8.52;;;21.90;99.90;;;;;;5049080;28;20399;-71
2022/06/10 12:31:36;;;;;;;208.45;47.95;;;21.90;99.90;;;;;;5053331;28;20090;-70
2022/06/10 12:34:11;;;;;;;425.77;113.00;;;22.00;99.90;;;;;;5049120;28;20049;-73
2022/06/10 12:36:42;;;;;;;161.38;38.60;;;22.00;99.90;;;;;;5049951;28;20053;-73
2022/06/10 12:39:28;;;;;;;61.05;16.67;;;22.00;99.90;;;;;;5053137;28;20044;-73
2022/06/10 12:42:10;;;;;;;21.65;8.32;;;22.00;99.90;;;;;;5049454;28;20033;-73
2022/06/10 12:44:41;;;;;;;13.65;7.75;;;22.00;99.90;;;;;;5049348;28;20486;-72
2022/06/10 12:47:11;;;;;;;18.67;8.88;;;22.00;99.90;;;;;;5059190;28;20044;-70
2022/06/10 12:49:43;;;;;;;11.20;7.50;;;22.10;99.90;;;;;;5059668;28;20047;-72
2022/06/10 12:52:50;;;;;;;20.73;10.38;;;22.00;99.90;;;;;;5055812;28;20059;-71
2022/06/10 12:55:20;;;;;;;;;;;22.10;99.90;;;;;;5061941;28;20068;-66
2022/06/10 12:57:47;;;;;;;10.55;8.18;;;22.00;99.90;;;;;;5057048;28;20019;-72
2022/06/10 13:00:22;;;;;;;10.85;7.35;;;21.90;99.90;;;;;;5060492;28;20051;-71
2022/06/10 13:02:54;;;;;;;213.00;67.57;;;21.90;99.90;;;;;;5054535;28;20049;-72
2022/06/10 13:05:22;;;;;;;51.03;18.23;;;21.90;99.90;;;;;;5047800;28;20053;-74
2022/06/10 13:07:49;;;;;;;24.70;8.18;;;21.90;99.90;;;;;;5053001;28;20528;-71
2022/06/10 13:10:30;;;;;;;21.98;8.73;;;22.00;99.90;;;;;;5049860;28;20040;-69